createdAt,value
2022-11-30T00:00:36.327Z,3.87
2022-11-30T00:03:03.158Z,3.83
2022-11-30T00:05:29.566Z,3.64
2022-11-30T00:08:08.983Z,3.72
2022-11-30T00:10:35.504Z,3.75
2022-11-30T00:13:01.888Z,3.90
2022-11-30T00:15:28.232Z,3.79
2022-11-30T00:17:57.669Z,3.71
2022-11-30T00:20:25.822Z,3.65
2022-11-30T00:22:52.143Z,3.64
2022-11-30T00:25:19.461Z,3.72
2022-11-30T00:27:45.822Z,3.60
2022-11-30T00:30:12.519Z,3.58
2022-11-30T00:32:38.930Z,3.74
2022-11-30T00:35:05.352Z,3.71
2022-11-30T00:37:34.285Z,3.79
2022-11-30T00:40:00.601Z,3.81
2022-11-30T00:42:27.058Z,3.67
2022-11-30T00:44:53.403Z,3.54
2022-11-30T00:47:19.811Z,3.71
2022-11-30T00:49:46.118Z,3.76
2022-11-30T00:52:12.509Z,3.80
2022-11-30T00:54:38.828Z,3.86
2022-11-30T00:57:05.206Z,3.72
2022-11-30T00:59:32.710Z,3.76
2022-11-30T01:01:59.041Z,3.81
2022-11-30T01:04:25.475Z,3.71
2022-11-30T01:06:51.787Z,3.83
2022-11-30T01:09:18.110Z,3.70
2022-11-30T01:11:44.431Z,3.78
2022-11-30T01:14:10.754Z,3.54
2022-11-30T01:16:37.097Z,3.67
2022-11-30T01:19:04.043Z,3.71
2022-11-30T01:21:30.464Z,3.80
2022-11-30T01:23:56.800Z,3.80
2022-11-30T01:26:23.714Z,3.64
2022-11-30T01:28:53.545Z,3.73
2022-11-30T01:31:21.443Z,3.72
2022-11-30T01:33:52.227Z,3.75
2022-11-30T01:36:20.217Z,3.77
2022-11-30T01:38:47.857Z,3.75
2022-11-30T01:41:15.482Z,3.74
2022-11-30T01:43:41.811Z,3.76
2022-11-30T01:46:20.377Z,3.73
2022-11-30T01:48:50.819Z,3.70
2022-11-30T01:51:17.126Z,3.73
2022-11-30T01:53:43.449Z,3.64
2022-11-30T01:56:09.864Z,3.58
2022-11-30T01:58:36.705Z,3.72
2022-11-30T02:01:03.990Z,3.77
2022-11-30T02:03:34.688Z,3.72
2022-11-30T02:06:01.083Z,3.66
2022-11-30T02:08:28.518Z,3.74
2022-11-30T02:10:58.342Z,3.70
2022-11-30T02:13:38.435Z,3.65
2022-11-30T02:16:23.471Z,3.61
2022-11-30T02:18:56.038Z,3.62
2022-11-30T02:21:30.064Z,3.64
2022-11-30T02:24:05.838Z,3.60
2022-11-30T02:26:42.897Z,3.64
2022-11-30T02:29:24.652Z,3.67
2022-11-30T02:31:54.919Z,3.57
2022-11-30T02:34:22.097Z,3.60
2022-11-30T02:36:58.985Z,3.60
2022-11-30T02:39:25.498Z,3.64
2022-11-30T02:41:51.834Z,3.52
2022-11-30T02:44:19.295Z,3.34
2022-11-30T02:47:01.103Z,3.61
2022-11-30T02:49:37.556Z,3.41
2022-11-30T02:52:05.096Z,3.49
2022-11-30T02:54:31.862Z,3.38
2022-11-30T02:57:00.172Z,3.44
2022-11-30T02:59:26.746Z,3.59
2022-11-30T03:01:54.097Z,3.30
2022-11-30T03:04:20.537Z,3.37
2022-11-30T03:06:46.844Z,3.38
2022-11-30T03:09:14.268Z,3.40
2022-11-30T03:11:40.575Z,3.47
2022-11-30T03:14:06.889Z,3.42
2022-11-30T03:16:33.551Z,3.53
2022-11-30T03:19:06.236Z,3.35
2022-11-30T03:21:32.744Z,3.49
2022-11-30T03:24:03.268Z,3.51
2022-11-30T03:26:29.577Z,3.41
2022-11-30T03:28:55.906Z,3.46
2022-11-30T03:31:22.307Z,3.31
2022-11-30T03:33:48.720Z,3.28
2022-11-30T03:36:15.079Z,3.37
2022-11-30T03:38:41.395Z,3.33
2022-11-30T03:41:12.228Z,3.41
2022-11-30T03:43:38.573Z,3.46
2022-11-30T03:46:05.192Z,3.53
2022-11-30T03:48:36.008Z,3.60
2022-11-30T03:51:02.563Z,3.50
2022-11-30T03:53:28.887Z,3.32
2022-11-30T03:55:56.590Z,3.53
2022-11-30T03:58:23.712Z,3.31
2022-11-30T04:00:50.614Z,3.31
2022-11-30T04:03:17.000Z,3.37
2022-11-30T04:05:43.665Z,3.42
2022-11-30T04:08:09.996Z,3.42
2022-11-30T04:10:36.369Z,3.41
2022-11-30T04:13:02.699Z,3.47
2022-11-30T04:15:32.064Z,3.60
2022-11-30T04:17:58.434Z,3.53
2022-11-30T04:20:27.244Z,3.53
2022-11-30T04:22:53.622Z,3.55
2022-11-30T04:25:19.975Z,3.45
2022-11-30T04:27:47.747Z,3.36
2022-11-30T04:30:14.581Z,3.33
2022-11-30T04:32:41.006Z,3.41
2022-11-30T04:35:07.594Z,3.39
2022-11-30T04:37:33.917Z,3.41
2022-11-30T04:40:00.323Z,3.37
2022-11-30T04:42:26.646Z,3.46
2022-11-30T04:44:54.975Z,3.38
2022-11-30T04:47:21.297Z,3.17
2022-11-30T04:49:50.809Z,3.38
2022-11-30T04:52:17.127Z,3.29
2022-11-30T04:54:43.440Z,3.37
2022-11-30T04:57:09.814Z,3.23
2022-11-30T04:59:36.135Z,3.18
2022-11-30T05:02:02.529Z,3.30
2022-11-30T05:04:30.002Z,3.18
2022-11-30T05:06:56.354Z,3.06
2022-11-30T05:09:22.740Z,3.12
2022-11-30T05:11:49.614Z,3.20
2022-11-30T05:14:16.008Z,3.10
2022-11-30T05:16:42.321Z,3.18
2022-11-30T05:19:08.731Z,3.18
2022-11-30T05:21:35.043Z,3.16
2022-11-30T05:24:01.365Z,3.33
2022-11-30T05:26:27.723Z,3.15
2022-11-30T05:28:55.608Z,3.06
2022-11-30T05:31:22.066Z,3.16
2022-11-30T05:33:51.717Z,3.13
2022-11-30T05:36:18.113Z,3.22
2022-11-30T05:38:44.699Z,3.15
2022-11-30T05:41:11.545Z,3.23
2022-11-30T05:43:37.945Z,3.18
2022-11-30T05:46:05.486Z,3.05
2022-11-30T05:48:38.988Z,2.99
2022-11-30T05:51:06.593Z,3.02
2022-11-30T05:53:33.116Z,3.01
2022-11-30T05:56:06.372Z,3.08
2022-11-30T05:58:33.265Z,3.22
2022-11-30T06:01:01.717Z,3.15
2022-11-30T06:03:29.382Z,3.09
2022-11-30T06:05:55.731Z,2.95
2022-11-30T06:08:35.308Z,2.94
2022-11-30T06:11:01.708Z,3.05
2022-11-30T06:13:29.196Z,2.86
2022-11-30T06:15:58.272Z,2.92
2022-11-30T06:18:24.598Z,2.92
2022-11-30T06:20:50.907Z,3.01
2022-11-30T06:23:17.287Z,2.96
2022-11-30T06:25:43.683Z,3.05
2022-11-30T06:28:10.620Z,2.87
2022-11-30T06:30:37.266Z,2.90
2022-11-30T06:33:05.614Z,3.05
2022-11-30T06:35:31.923Z,3.04
2022-11-30T06:38:00.444Z,3.03
2022-11-30T06:40:28.054Z,2.93
2022-11-30T06:42:54.898Z,2.80
2022-11-30T06:45:21.210Z,2.95
2022-11-30T06:47:47.569Z,3.07
2022-11-30T06:50:14.631Z,3.02
2022-11-30T06:52:40.949Z,2.86
2022-11-30T06:55:08.022Z,3.02
2022-11-30T06:57:34.968Z,2.78
2022-11-30T07:00:01.302Z,2.86
2022-11-30T07:02:27.697Z,2.92
2022-11-30T07:04:54.084Z,2.86
2022-11-30T07:07:20.433Z,2.86
2022-11-30T07:09:47.828Z,2.81
2022-11-30T07:12:14.160Z,2.82
2022-11-30T07:14:40.501Z,3.10
2022-11-30T07:17:06.852Z,3.26
2022-11-30T07:19:42.058Z,2.98
2022-11-30T07:22:08.367Z,2.73
2022-11-30T07:24:53.187Z,2.79
2022-11-30T07:27:22.496Z,2.86
2022-11-30T07:29:51.435Z,2.88
2022-11-30T07:32:18.031Z,2.87
2022-11-30T07:34:44.518Z,2.75
2022-11-30T07:37:11.403Z,2.87
2022-11-30T07:39:38.193Z,2.96
2022-11-30T07:42:04.548Z,2.95
2022-11-30T07:44:30.879Z,2.98
2022-11-30T07:46:57.269Z,2.96
2022-11-30T07:49:23.584Z,2.82
2022-11-30T07:51:50.158Z,2.96
2022-11-30T07:54:16.503Z,3.01
2022-11-30T07:56:42.833Z,3.05
2022-11-30T07:59:09.356Z,3.02
2022-11-30T08:01:37.824Z,2.97
2022-11-30T08:04:04.469Z,2.94
2022-11-30T08:06:31.427Z,2.99
2022-11-30T08:08:59.143Z,2.99
2022-11-30T08:11:27.195Z,2.94
2022-11-30T08:14:03.313Z,2.95
2022-11-30T08:16:31.123Z,2.94
2022-11-30T08:18:58.058Z,2.95
2022-11-30T08:21:24.462Z,2.84
2022-11-30T08:23:51.906Z,2.99
2022-11-30T08:26:28.787Z,2.94
2022-11-30T08:28:55.134Z,3.11
2022-11-30T08:31:23.386Z,3.16
2022-11-30T08:33:50.057Z,3.12
2022-11-30T08:36:20.668Z,3.19
2022-11-30T08:38:48.033Z,3.17
2022-11-30T08:41:15.477Z,3.16
2022-11-30T08:43:42.267Z,3.15
2022-11-30T08:46:34.838Z,3.27
2022-11-30T08:49:12.936Z,3.00
2022-11-30T08:52:15.507Z,3.22
2022-11-30T08:54:29.883Z,3.23
2022-11-30T08:57:01.263Z,3.16
2022-11-30T08:59:27.581Z,3.23
2022-11-30T09:01:53.933Z,2.99
2022-11-30T09:04:20.268Z,3.01
2022-11-30T09:06:46.579Z,3.13
2022-11-30T09:09:13.658Z,3.23
2022-11-30T09:11:46.270Z,3.38
2022-11-30T09:14:12.576Z,3.19
2022-11-30T09:16:38.974Z,3.21
2022-11-30T09:19:05.348Z,2.92
2022-11-30T09:21:31.822Z,3.08
2022-11-30T09:23:59.206Z,3.17
2022-11-30T09:26:25.753Z,3.16
2022-11-30T09:28:52.619Z,3.17
2022-11-30T09:31:20.447Z,3.27
2022-11-30T09:33:47.292Z,3.24
2022-11-30T09:36:15.032Z,3.30
2022-11-30T09:38:44.347Z,3.31
2022-11-30T09:41:29.608Z,3.36
2022-11-30T09:44:03.364Z,3.39
2022-11-30T09:46:41.764Z,3.23
2022-11-30T09:49:18.878Z,3.16
2022-11-30T09:51:46.408Z,3.28
2022-11-30T09:54:16.359Z,3.28
2022-11-30T09:56:43.149Z,3.26
2022-11-30T09:59:24.854Z,3.40
2022-11-30T10:01:56.607Z,3.36
2022-11-30T10:04:24.662Z,3.42
2022-11-30T10:06:52.029Z,3.50
2022-11-30T10:09:21.451Z,3.36
2022-11-30T10:11:55.774Z,3.20
2022-11-30T10:14:41.180Z,3.28
2022-11-30T10:17:34.298Z,3.47
2022-11-30T10:20:19.369Z,3.46
2022-11-30T10:22:55.982Z,3.32
2022-11-30T10:25:23.923Z,3.39
2022-11-30T10:27:54.094Z,3.47
2022-11-30T10:30:24.965Z,3.11
2022-11-30T10:32:55.140Z,3.17
2022-11-30T10:35:40.081Z,3.09
2022-11-30T10:38:13.511Z,3.26
2022-11-30T10:41:05.990Z,3.25
2022-11-30T10:43:38.216Z,3.40
2022-11-30T10:46:04.801Z,3.26
2022-11-30T10:48:31.180Z,3.23
2022-11-30T10:50:58.694Z,3.33
2022-11-30T10:53:25.084Z,3.45
2022-11-30T10:55:58.753Z,3.38
2022-11-30T10:58:30.440Z,3.13
2022-11-30T11:01:08.099Z,3.15
2022-11-30T11:03:34.743Z,3.13
2022-11-30T11:06:07.931Z,3.13
2022-11-30T11:08:35.294Z,3.17
2022-11-30T11:11:01.704Z,3.13
2022-11-30T11:13:37.498Z,3.36
2022-11-30T11:16:05.401Z,3.23
2022-11-30T11:18:32.425Z,3.28
2022-11-30T11:21:13.964Z,3.35
2022-11-30T11:23:43.389Z,3.35
2022-11-30T11:26:19.871Z,3.29
2022-11-30T11:28:50.017Z,3.19
2022-11-30T11:31:18.949Z,3.04
2022-11-30T11:33:53.303Z,3.52
2022-11-30T11:36:27.178Z,3.31
2022-11-30T11:38:53.518Z,2.99
2022-11-30T11:41:22.971Z,2.89
2022-11-30T11:44:02.824Z,3.00
2022-11-30T11:46:30.625Z,2.98
2022-11-30T11:49:00.130Z,2.95
2022-11-30T11:51:30.466Z,3.02
2022-11-30T11:53:58.709Z,3.12
2022-11-30T11:56:26.415Z,3.40
2022-11-30T11:59:01.106Z,3.51
2022-11-30T12:01:47.682Z,3.11
2022-11-30T12:04:32.910Z,3.09
2022-11-30T12:07:02.259Z,3.41
2022-11-30T12:09:31.231Z,3.04
2022-11-30T12:11:57.630Z,3.02
2022-11-30T12:14:25.239Z,2.88
2022-11-30T12:17:00.818Z,2.90
2022-11-30T12:19:43.141Z,2.80
2022-11-30T12:22:28.395Z,2.82
2022-11-30T12:24:54.712Z,2.98
2022-11-30T12:27:42.537Z,2.93
2022-11-30T12:30:27.632Z,2.82
2022-11-30T12:33:07.607Z,2.83
2022-11-30T12:35:40.117Z,2.83
2022-11-30T12:38:15.842Z,2.79
2022-11-30T12:40:58.899Z,2.77
2022-11-30T12:43:48.556Z,3.02
2022-11-30T12:46:21.089Z,3.11
2022-11-30T12:49:06.113Z,3.01
2022-11-30T12:51:32.470Z,2.95
2022-11-30T12:54:05.049Z,3.05
2022-11-30T12:56:44.375Z,2.98
2022-11-30T12:59:21.896Z,2.89
2022-11-30T13:01:48.482Z,2.94
2022-11-30T13:04:37.987Z,2.83
2022-11-30T13:07:13.527Z,2.68
2022-11-30T13:09:49.191Z,2.59
2022-11-30T13:12:20.830Z,2.91
2022-11-30T13:14:48.312Z,2.80
2022-11-30T13:17:18.964Z,2.84
2022-11-30T13:19:55.636Z,2.89
2022-11-30T13:22:42.422Z,2.96
2022-11-30T13:25:19.626Z,2.78
2022-11-30T13:28:03.218Z,2.71
2022-11-30T13:30:50.784Z,2.73
2022-11-30T13:33:35.994Z,2.77
2022-11-30T13:36:05.315Z,2.65
2022-11-30T13:38:37.403Z,2.69
2022-11-30T13:41:05.451Z,2.86
2022-11-30T13:43:36.153Z,2.81
2022-11-30T13:46:03.413Z,2.73
2022-11-30T13:48:36.962Z,3.02
2022-11-30T13:51:04.236Z,3.18
2022-11-30T13:53:34.275Z,2.82
2022-11-30T13:56:08.004Z,2.78
2022-11-30T13:58:56.355Z,2.68
2022-11-30T14:01:25.459Z,2.72
2022-11-30T14:04:28.665Z,2.52
2022-11-30T14:06:56.399Z,2.48
2022-11-30T14:09:43.516Z,2.66
2022-11-30T14:12:28.464Z,2.47
2022-11-30T14:14:54.857Z,2.52
2022-11-30T14:17:23.962Z,2.54
2022-11-30T14:19:52.175Z,2.56
2022-11-30T14:22:18.624Z,2.50
2022-11-30T14:24:46.368Z,2.49
2022-11-30T14:27:23.915Z,2.54
2022-11-30T14:29:53.356Z,2.42
2022-11-30T14:32:25.512Z,2.49
2022-11-30T14:34:54.377Z,2.54
2022-11-30T14:37:20.699Z,2.43
2022-11-30T14:39:49.146Z,2.47
2022-11-30T14:42:35.418Z,2.48
2022-11-30T14:45:01.747Z,2.55
2022-11-30T14:47:28.088Z,2.60
2022-11-30T14:49:56.958Z,2.60
2022-11-30T14:52:42.195Z,2.56
2022-11-30T14:55:18.754Z,2.53
2022-11-30T14:57:55.441Z,2.49
2022-11-30T15:00:22.035Z,2.52
2022-11-30T15:02:49.559Z,2.57
2022-11-30T15:05:21.475Z,2.55
2022-11-30T15:07:48.283Z,2.53
2022-11-30T15:10:16.282Z,2.45
2022-11-30T15:12:44.991Z,2.32
2022-11-30T15:15:22.461Z,2.47
2022-11-30T15:17:53.498Z,2.51
2022-11-30T15:20:23.769Z,2.52
2022-11-30T15:22:50.211Z,2.56
2022-11-30T15:25:16.709Z,2.70
2022-11-30T15:27:43.260Z,2.68
2022-11-30T15:30:13.966Z,2.60
2022-11-30T15:32:46.236Z,2.71
2022-11-30T15:35:18.566Z,2.53
2022-11-30T15:37:45.236Z,2.53
2022-11-30T15:40:15.978Z,2.52
2022-11-30T15:42:46.944Z,2.61
2022-11-30T15:45:16.290Z,2.62
2022-11-30T15:47:43.047Z,2.80
2022-11-30T15:50:24.724Z,2.65
2022-11-30T15:52:51.672Z,2.61
2022-11-30T15:55:36.966Z,2.82
2022-11-30T15:58:45.398Z,2.53
2022-11-30T16:01:12.093Z,2.29
2022-11-30T16:04:01.518Z,2.33
2022-11-30T16:06:30.500Z,2.33
2022-11-30T16:08:59.685Z,2.28
2022-11-30T16:11:27.145Z,2.34
2022-11-30T16:13:54.572Z,2.34
2022-11-30T16:16:22.139Z,2.25
2022-11-30T16:18:48.762Z,2.28
2022-11-30T16:21:18.274Z,2.34
2022-11-30T16:23:45.998Z,2.18
2022-11-30T16:26:43.260Z,2.32
2022-11-30T16:29:02.621Z,2.52
2022-11-30T16:31:31.979Z,2.42
2022-11-30T16:34:01.530Z,2.38
2022-11-30T16:36:30.248Z,2.47
2022-11-30T16:38:58.710Z,2.31
2022-11-30T16:41:27.185Z,2.42
2022-11-30T16:43:54.631Z,2.41
2022-11-30T16:46:22.095Z,2.39
2022-11-30T16:48:48.945Z,2.35
2022-11-30T16:51:18.225Z,2.44
2022-11-30T16:53:45.318Z,2.45
2022-11-30T16:56:14.237Z,2.54
2022-11-30T16:58:40.927Z,2.42
2022-11-30T17:01:11.149Z,2.50
2022-11-30T17:03:37.704Z,2.49
2022-11-30T17:06:07.087Z,2.40
2022-11-30T17:08:33.605Z,2.43
2022-11-30T17:11:01.120Z,2.42
2022-11-30T17:13:27.617Z,2.58
2022-11-30T17:15:53.966Z,2.43
2022-11-30T17:18:20.286Z,2.43
2022-11-30T17:20:46.812Z,2.36
2022-11-30T17:23:13.165Z,2.43
2022-11-30T17:25:39.546Z,2.51
2022-11-30T17:28:07.924Z,2.57
2022-11-30T17:30:34.510Z,2.44
2022-11-30T17:33:01.051Z,2.43
2022-11-30T17:35:28.671Z,2.35
2022-11-30T17:37:55.171Z,2.43
2022-11-30T17:40:21.584Z,2.43
2022-11-30T17:42:49.078Z,2.46
2022-11-30T17:45:15.539Z,2.30
2022-11-30T17:47:42.053Z,2.39
2022-11-30T17:50:08.948Z,2.44
2022-11-30T17:52:37.462Z,2.36
2022-11-30T17:55:03.903Z,2.42
2022-11-30T17:57:30.218Z,2.47
2022-11-30T17:59:56.633Z,2.34
2022-11-30T18:02:23.044Z,2.48
2022-11-30T18:04:49.786Z,2.47
2022-11-30T18:07:16.578Z,2.60
2022-11-30T18:09:43.954Z,2.82
2022-11-30T18:12:10.731Z,2.63
2022-11-30T18:14:37.070Z,2.72
2022-11-30T18:17:03.615Z,2.58
2022-11-30T18:19:30.019Z,2.57
2022-11-30T18:21:56.460Z,2.57
2022-11-30T18:24:25.594Z,2.61
2022-11-30T18:26:52.632Z,2.49
2022-11-30T18:29:19.276Z,2.54
2022-11-30T18:31:48.204Z,2.55
2022-11-30T18:34:17.038Z,2.63
2022-11-30T18:36:44.444Z,2.64
2022-11-30T18:39:10.883Z,2.66
2022-11-30T18:41:37.379Z,2.61
2022-11-30T18:44:03.853Z,2.61
2022-11-30T18:46:30.732Z,2.61
2022-11-30T18:48:59.061Z,2.66
2022-11-30T18:51:26.438Z,2.60
2022-11-30T18:53:58.483Z,2.58
2022-11-30T18:56:27.807Z,2.49
2022-11-30T18:58:59.384Z,2.52
2022-11-30T19:01:26.290Z,2.49
2022-11-30T19:04:01.239Z,2.52
2022-11-30T19:06:29.820Z,2.58
2022-11-30T19:08:56.708Z,2.52
2022-11-30T19:11:23.081Z,2.56
2022-11-30T19:13:53.153Z,2.62
2022-11-30T19:16:19.717Z,2.59
2022-11-30T19:18:47.260Z,2.61
2022-11-30T19:21:15.868Z,2.53
2022-11-30T19:23:42.211Z,2.58
2022-11-30T19:26:10.029Z,2.50
2022-11-30T19:28:37.145Z,2.62
2022-11-30T19:31:07.972Z,2.65
2022-11-30T19:33:35.002Z,2.38
2022-11-30T19:36:08.834Z,2.58
2022-11-30T19:38:35.419Z,2.51
2022-11-30T19:41:09.498Z,2.55
2022-11-30T19:43:36.085Z,2.58
2022-11-30T19:46:14.325Z,2.51
2022-11-30T19:48:41.452Z,2.49
2022-11-30T19:51:13.232Z,2.52
2022-11-30T19:53:42.303Z,2.66
2022-11-30T19:56:10.803Z,2.52
2022-11-30T19:58:37.429Z,2.57
2022-11-30T20:01:05.151Z,2.65
2022-11-30T20:03:36.904Z,2.63
2022-11-30T20:06:03.385Z,2.71
2022-11-30T20:08:31.773Z,2.67
2022-11-30T20:10:58.524Z,2.64
2022-11-30T20:13:24.858Z,2.66
2022-11-30T20:15:51.389Z,2.61
2022-11-30T20:18:17.785Z,2.58
2022-11-30T20:20:44.192Z,2.56
2022-11-30T20:23:10.504Z,2.65
2022-11-30T20:25:40.927Z,2.66
2022-11-30T20:28:12.387Z,2.59
2022-11-30T20:30:39.325Z,2.80
2022-11-30T20:33:06.104Z,2.78
2022-11-30T20:35:34.944Z,2.83
2022-11-30T20:38:01.338Z,2.82
2022-11-30T20:40:27.796Z,2.87
2022-11-30T20:42:54.103Z,2.91
2022-11-30T20:45:20.410Z,2.83
2022-11-30T20:47:49.850Z,2.72
2022-11-30T20:50:16.361Z,2.70
2022-11-30T20:52:43.736Z,2.74
2022-11-30T20:55:10.113Z,2.71
2022-11-30T20:57:36.431Z,2.63
2022-11-30T21:00:08.803Z,2.63
2022-11-30T21:02:37.988Z,2.61
2022-11-30T21:05:04.436Z,2.71
2022-11-30T21:07:30.811Z,2.65
2022-11-30T21:09:58.452Z,2.67
2022-11-30T21:12:24.765Z,2.71
2022-11-30T21:14:51.151Z,2.80
2022-11-30T21:17:17.507Z,2.71
2022-11-30T21:19:43.834Z,2.71
2022-11-30T21:22:11.046Z,2.72
2022-11-30T21:24:37.610Z,2.76
2022-11-30T21:27:04.070Z,2.72
2022-11-30T21:29:30.379Z,2.74
2022-11-30T21:31:57.699Z,2.87
2022-11-30T21:34:25.357Z,2.89
2022-11-30T21:36:52.171Z,2.83
2022-11-30T21:39:18.631Z,2.88
2022-11-30T21:41:45.034Z,2.92
2022-11-30T21:44:13.467Z,2.90
2022-11-30T21:46:40.004Z,2.92
2022-11-30T21:49:06.532Z,2.74
2022-11-30T21:51:33.157Z,2.75
2022-11-30T21:54:00.908Z,2.68
2022-11-30T21:56:28.935Z,2.80
2022-11-30T21:59:03.850Z,2.72
2022-11-30T22:01:30.161Z,2.78
2022-11-30T22:03:59.213Z,2.81
2022-11-30T22:06:26.355Z,2.76
2022-11-30T22:08:52.931Z,2.72
2022-11-30T22:11:20.943Z,2.62
2022-11-30T22:13:51.018Z,2.56
2022-11-30T22:16:17.880Z,2.53
2022-11-30T22:18:44.393Z,2.52
2022-11-30T22:21:12.643Z,2.49
2022-11-30T22:23:40.102Z,2.45
2022-11-30T22:26:10.911Z,2.37
2022-11-30T22:28:37.332Z,2.32
2022-11-30T22:31:05.497Z,2.25
2022-11-30T22:33:36.027Z,2.21
2022-11-30T22:36:02.636Z,2.15
2022-11-30T22:38:29.453Z,2.22
2022-11-30T22:41:02.408Z,2.22
2022-11-30T22:43:29.804Z,2.20
2022-11-30T22:46:01.389Z,2.16
2022-11-30T22:48:29.329Z,2.10
2022-11-30T22:50:55.642Z,2.12
2022-11-30T22:53:22.057Z,2.17
2022-11-30T22:55:48.599Z,2.25
2022-11-30T22:58:15.077Z,2.29
2022-11-30T23:00:41.397Z,2.32
2022-11-30T23:03:07.831Z,2.29
2022-11-30T23:05:34.638Z,2.22
2022-11-30T23:08:01.108Z,2.25
2022-11-30T23:10:27.472Z,2.31
2022-11-30T23:13:00.930Z,2.26
2022-11-30T23:15:27.564Z,2.17
2022-11-30T23:17:55.005Z,1.98
2022-11-30T23:20:22.438Z,2.08
2022-11-30T23:22:48.774Z,2.13
2022-11-30T23:25:15.096Z,2.17
2022-11-30T23:27:41.449Z,2.07
2022-11-30T23:30:08.673Z,2.04
2022-11-30T23:32:34.990Z,1.95
2022-11-30T23:35:01.311Z,1.91
2022-11-30T23:37:27.611Z,1.89
2022-11-30T23:39:53.923Z,1.87
2022-11-30T23:42:20.261Z,1.85
2022-11-30T23:44:46.592Z,1.76
2022-11-30T23:47:18.021Z,1.66
2022-11-30T23:49:44.856Z,1.69
2022-11-30T23:52:11.175Z,1.75
2022-11-30T23:54:37.487Z,1.67
2022-11-30T23:57:03.822Z,1.69
2022-11-30T23:59:30.227Z,1.67
